Aérodrome :
LOGIN :

S'inscrire | Disclaimer

   EN    FR    IT 

 










Légende :    VFR   VFR Marginal   IFR   IFR Intensif   IFR Très Intensif
Visi : 
Plafond : 
>= 8 km
>= 3000ft
5 à 8 km
1000 à 3000 ft
1500m à 5 km
500 à 1000 ft
800 à 1500m
200 à 500 ft
< 800m
< 200 ft
Symboles :   Orages  Brouillard  Fortes neiges  Fortes précipitations  Vent > 20 kt
SIGMETs :   Divers  Orages  Givrage  Turbulence  Onde Orograph.  Cendres Volcan.






- Altitude de l'aérodrome : 158 ft
- Code IATA : QAR


EHDL - Deelen Airbase

DERNIER METAR :
  • 151255Z AUTO 06010KT 350V150 8000 BR SCT014 OVC016 05/03 Q1000 GRN

METARs EXPIRÉS :
  • 151225Z AUTO 07007KT 350V150 8000 BR FEW014 OVC017 06/03 Q1001 WHT
  • 151155Z AUTO 05010KT 340V120 8000 BR SCT014 OVC017 05/03 Q1000 GRN
  • 151125Z AUTO 06010KT 350V110 9000 BR OVC015 05/03 Q1001 WHT
  • 151055Z AUTO 06010KT 340V140 9000 BR BKN014 OVC017 05/02 Q1001 GRN
  • 151025Z AUTO 06008KT 350V130 9999 SCT014 OVC016 05/02 Q1001 GRN
  • 150955Z AUTO VRB12KT 9999 OVC015 05/02 Q1000 WHT

Prévision TAF périmée.



MET'MAP, la Météo Aéronautique d'un coup d'oeil ! - Copyright ORBIFLY Décembre 2007 - Disclaimer

ORBIFLY MET'MAP TEAM :

Programmation & Développement : Alexandra Zaïnal
Conception & Développement : Baudouin d'Aumeries
Co-Programmation & Développement : Marc-Olivier Méhu
Soutien technique & logistique : Manuel Goepfert

Contact : metmap@orbifly.com




SOURCES & CREDITS :

   NOAA